Hakuryoumaru No.15 — JD2439 — position and weather

sailwx.info

Track history (hours):
 
Tides and Currents Weather Stations Pressure Air Temp Water Temp Dewpoint Dewpoint Depression Visibility Wind Speed Wind Dir Waves Ship Positions

Hakuryoumaru No.15

Last reported at 2016-Aug-27 04:33 UTC. Time now 2016-Aug-28 10:29 UTC.
Position N 34°09' E 135°12'.

Length 80 m; draft 5.4 m.

Type: Tanker. MMSI: 431000243.

Date/timePositionNaut miles runAvg speedWind from/ knotsBaromVisibWave heightAir tempDewpointWater temp
2016-Aug-27 04:33N 34°09' E 135°12'0 0.0
2016-Aug-27 00:25N 34°09' E 135°12'5 5.5
2016-Aug-26 23:32N 34°09' E 135°06'1413.5
2016-Aug-26 22:31N 34°09' E 134°50'  
2016-Aug-21 06:33N 34°37' E 134°57'8 8.3
2016-Aug-21 05:33N 34°36' E 135°07'1212.3
2016-Aug-21 04:33N 34°36' E 135°22'4 0.6
2016-Aug-20 22:33N 34°35' E 135°25'2 2.0
2016-Aug-20 21:29N 34°35' E 135°23'0 0.0
2016-Aug-20 20:29N 34°35' E 135°23'0 0.0
2016-Aug-20 19:23N 34°35' E 135°23'0 0.0
2016-Aug-20 18:29N 34°35' E 135°23'0 0.0
2016-Aug-20 17:29N 34°35' E 135°23'0 0.0
2016-Aug-20 15:23N 34°35' E 135°23'0 0.0
2016-Aug-20 14:29N 34°35' E 135°23'0 0.0
2016-Aug-20 13:29N 34°35' E 135°23'0 0.0
2016-Aug-20 12:24N 34°35' E 135°23'1011.6
2016-Aug-20 11:33N 34°35' E 135°11'  
Track history (hours):
 
Tides and Currents Weather Stations Pressure Air Temp Water Temp Dewpoint Dewpoint Depression Visibility Wind Speed Wind Dir Waves Ship Positions

Hakuryoumaru No.15

Last reported at 2016-Aug-27 04:33 UTC. Time now 2016-Aug-28 10:29 UTC.
Position N 34°09' E 135°12'.

Length 80 m; draft 5.4 m.

Type: Tanker. MMSI: 431000243.

Date/timePositionNaut miles runAvg speedWind from/ knotsBaromVisibWave heightAir tempDewpointWater temp
2016-Aug-27 04:33N 34°09' E 135°12'0 0.0
2016-Aug-27 00:25N 34°09' E 135°12'5 5.5
2016-Aug-26 23:32N 34°09' E 135°06'1413.5
2016-Aug-26 22:31N 34°09' E 134°50'  
2016-Aug-21 06:33N 34°37' E 134°57'8 8.3
2016-Aug-21 05:33N 34°36' E 135°07'1212.3
2016-Aug-21 04:33N 34°36' E 135°22'4 0.6
2016-Aug-20 22:33N 34°35' E 135°25'2 2.0
2016-Aug-20 21:29N 34°35' E 135°23'0 0.0
2016-Aug-20 20:29N 34°35' E 135°23'0 0.0
2016-Aug-20 19:23N 34°35' E 135°23'0 0.0
2016-Aug-20 18:29N 34°35' E 135°23'0 0.0
2016-Aug-20 17:29N 34°35' E 135°23'0 0.0
2016-Aug-20 15:23N 34°35' E 135°23'0 0.0
2016-Aug-20 14:29N 34°35' E 135°23'0 0.0
2016-Aug-20 13:29N 34°35' E 135°23'0 0.0
2016-Aug-20 12:24N 34°35' E 135°23'1011.6
2016-Aug-20 11:33N 34°35' E 135°11'  

Dump ship's entire track history